Time;durP1;ratioP1;P1;durP2;ratioP2;P2;SDS_P1;SDS_P2;PMS_P1;PMS_P2;Temp;Humidity;BMP_temperature;BMP_pressure;BME280_temperature;BME280_humidity;BME280_pressure;Samples;Min_cycle;Max_cycle;Signal;HPM_P1;HPM_P2
2022/11/01 00:00:51;;;;;;;16.37;8.37;;;;;;;16.41;62.75;98715.44;6891303;28;20294;-78
2022/11/01 00:04:14;;;;;;;13.97;8.83;;;;;;;16.05;63.78;98715.78;6892379;28;20243;-78
2022/11/01 00:07:35;;;;;;;13.20;9.20;;;;;;;15.95;64.36;98725.63;6891718;28;20234;-78
2022/11/01 00:11:01;;;;;;;10.50;8.67;;;;;;;16.31;63.91;98739.69;6892749;28;20265;-78
2022/11/01 00:14:23;;;;;;;17.00;7.83;;;;;;;16.53;62.89;98720.81;6891717;28;20254;-78
2022/11/01 00:17:45;;;;;;;10.03;7.73;;;;;;;16.79;62.18;98726.44;6891308;28;20209;-78
2022/11/01 00:21:08;;;;;;;14.60;7.60;;;;;;;16.67;62.17;98716.69;6891379;28;20643;-78
2022/11/01 00:24:30;;;;;;;12.97;8.20;;;;;;;16.52;62.66;98714.53;6892156;28;20281;-78
2022/11/01 00:27:52;;;;;;;10.40;7.77;;;;;;;16.01;63.41;98717.34;6891222;28;20602;-78
2022/11/01 00:31:14;;;;;;;15.30;8.20;;;;;;;15.60;65.04;98716.72;6892114;28;20326;-78
2022/11/01 00:34:35;;;;;;;12.20;8.27;;;;;;;15.83;64.05;98674.03;6892208;28;20210;-78
2022/11/01 00:37:59;;;;;;;12.27;7.70;;;;;;;16.60;62.90;98707.88;6890704;28;20216;-78
2022/11/01 00:41:20;;;;;;;16.63;8.57;;;;;;;16.61;62.44;98709.50;6891058;28;20234;-78
2022/11/01 00:44:42;;;;;;;9.67;7.50;;;;;;;16.46;62.65;98726.41;6891662;28;20305;-78
2022/11/01 00:48:04;;;;;;;11.73;8.73;;;;;;;16.55;62.56;98719.50;6891224;28;20290;-78
2022/11/01 00:51:26;;;;;;;17.43;8.03;;;;;;;16.28;62.86;98720.31;6890777;28;20231;-78
2022/11/01 00:54:49;;;;;;;11.60;7.77;;;;;;;15.75;64.69;98725.22;6925910;28;20296;-78
2022/11/01 00:58:10;;;;;;;9.90;8.10;;;;;;;16.25;63.54;98726.22;6945120;28;20231;-78
2022/11/01 01:01:32;;;;;;;11.43;8.13;;;;;;;15.77;65.21;98718.50;6944830;28;20239;-78
2022/11/01 01:04:53;;;;;;;13.07;8.00;;;;;;;16.06;63.74;98722.91;6945515;28;20256;-78
2022/11/01 01:08:15;;;;;;;14.77;8.60;;;;;;;16.18;63.28;98717.41;6944747;28;20249;-78
2022/11/01 01:11:38;;;;;;;16.23;8.20;;;;;;;16.21;63.77;98709.56;6945324;28;20278;-78
2022/11/01 01:14:59;;;;;;;11.60;7.93;;;;;;;16.37;62.69;98718.84;6944973;28;20633;-78
2022/11/01 01:18:21;;;;;;;11.17;8.17;;;;;;;16.45;62.52;98727.47;6944576;28;20716;-78
2022/11/01 01:21:42;;;;;;;11.17;8.10;;;;;;;16.35;62.97;98718.28;6944627;28;20317;-77
2022/11/01 01:25:04;;;;;;;12.67;8.77;;;;;;;15.99;63.86;98705.88;6948329;28;20298;-78
2022/11/01 01:28:28;;;;;;;12.33;8.13;;;;;;;16.20;63.31;98720.69;6921875;28;20228;-78
2022/11/01 01:31:49;;;;;;;13.73;8.10;;;;;;;16.26;62.93;98706.13;6918622;28;20310;-78
2022/11/01 01:35:11;;;;;;;13.07;8.80;;;;;;;15.85;63.61;98696.34;6917668;28;20732;-78
2022/11/01 01:38:33;;;;;;;15.00;8.27;;;;;;;16.07;63.46;98710.94;6915561;28;20212;-78
2022/11/01 01:41:57;;;;;;;11.67;8.20;;;;;;;15.63;63.99;98702.69;6917171;28;20237;-78
2022/11/01 01:45:29;;;;;;;11.07;7.90;;;;;;;15.42;65.96;98700.56;6917811;28;20212;-78
2022/11/01 01:48:53;;;;;;;14.10;8.50;;;;;;;16.09;64.11;98687.03;6917872;28;20726;-78
2022/11/01 01:52:15;;;;;;;12.07;8.87;;;;;;;15.88;63.69;98689.59;6917659;28;20232;-78
2022/11/01 01:55:40;;;;;;;13.87;8.10;;;;;;;15.99;63.85;98680.59;6917317;28;20342;-78
2022/11/01 01:59:05;;;;;;;15.57;8.43;;;;;;;16.07;63.53;98702.78;6917173;28;20287;-78
2022/11/01 02:02:29;;;;;;;13.03;8.07;;;;;;;16.09;63.17;98697.91;6917667;28;20323;-78
2022/11/01 02:05:53;;;;;;;13.17;8.57;;;;;;;15.93;63.43;98698.69;6918585;28;20207;-78
2022/11/01 02:09:15;;;;;;;13.73;8.43;;;;;;;16.08;63.22;98693.56;6916490;28;20302;-78
2022/11/01 02:12:37;;;;;;;18.63;9.07;;;;;;;15.98;63.70;98687.91;6917423;28;20314;-78
2022/11/01 02:16:23;;;;;;;12.87;8.70;;;;;;;16.06;63.73;98694.84;6917216;28;20877;-78
2022/11/01 02:20:25;;;;;;;14.50;8.70;;;;;;;16.02;63.56;98701.84;6916929;28;20256;-78
2022/11/01 02:24:27;;;;;;;12.27;8.13;;;;;;;16.08;63.28;98706.31;6917393;28;20199;-78
2022/11/01 02:28:05;;;;;;;10.40;8.80;;;;;;;16.02;63.36;98670.03;6916566;28;20753;-78
2022/11/01 02:31:39;;;;;;;14.53;9.07;;;;;;;16.29;62.81;98706.44;6917315;28;20767;-78
2022/11/01 02:35:07;;;;;;;12.13;8.73;;;;;;;16.16;62.98;98703.22;6918491;28;20644;-78
2022/11/01 02:38:33;;;;;;;15.97;9.70;;;;;;;16.32;62.76;98689.66;6918748;28;20304;-78
2022/11/01 02:41:58;;;;;;;14.90;8.83;;;;;;;16.24;62.96;98702.81;6921056;28;20709;-79
2022/11/01 02:45:27;;;;;;;14.57;9.20;;;;;;;16.29;62.30;98705.66;6914414;28;20204;-78
2022/11/01 02:48:49;;;;;;;12.93;8.47;;;;;;;16.17;62.59;98661.34;6922022;28;20221;-78
2022/11/01 02:52:14;;;;;;;11.97;8.87;;;;;;;16.23;63.11;98696.53;6922795;28;20317;-78
2022/11/01 02:55:36;;;;;;;15.00;8.80;;;;;;;16.46;62.69;98695.66;6922541;28;20192;-78
2022/11/01 02:58:57;;;;;;;12.37;8.67;;;;;;;16.33;62.50;98701.38;6921779;28;20201;-78
2022/11/01 03:02:38;;;;;;;14.37;9.30;;;;;;;16.51;61.99;98709.34;6921838;28;20289;-78
2022/11/01 03:06:07;;;;;;;12.60;8.70;;;;;;;16.25;63.19;98716.19;6922621;28;20196;-78
2022/11/01 03:09:31;;;;;;;14.00;8.27;;;;;;;16.33;63.11;98715.78;6922075;28;20215;-78
2022/11/01 03:12:59;;;;;;;12.17;8.83;;;;;;;16.57;62.98;98738.31;6922257;28;20263;-78
2022/11/01 03:16:29;;;;;;;9.47;8.10;;;;;;;16.30;63.51;98738.06;6922367;28;20197;-78
2022/11/01 03:19:52;;;;;;;12.23;8.80;;;;;;;16.55;63.00;98713.22;6921663;28;20203;-78
2022/11/01 03:23:16;;;;;;;11.17;7.90;;;;;;;16.69;62.99;98739.06;6921458;28;20225;-78
2022/11/01 03:26:40;;;;;;;12.77;7.73;;;;;;;16.48;62.74;98740.59;6921528;28;20214;-78
2022/11/01 03:30:05;;;;;;;13.87;8.77;;;;;;;16.04;63.89;98733.16;6921067;28;20258;-78
2022/11/01 03:33:27;;;;;;;12.97;9.33;;;;;;;16.48;63.29;98742.50;6921040;28;20386;-77
2022/11/01 03:36:51;;;;;;;15.77;9.03;;;;;;;16.22;64.23;98752.03;6921592;28;20293;-78
2022/11/01 03:40:14;;;;;;;14.53;9.10;;;;;;;16.33;64.64;98742.19;6919011;28;20296;-78
2022/11/01 03:43:37;;;;;;;19.60;9.10;;;;;;;16.13;64.79;98755.38;6920151;28;20224;-78
2022/11/01 03:46:59;;;;;;;11.10;8.20;;;;;;;16.00;64.90;98763.81;6920703;28;20354;-78
2022/11/01 03:50:22;;;;;;;14.87;9.43;;;;;;;16.34;65.20;98754.72;6919548;28;20301;-78
2022/11/01 03:53:44;;;;;;;10.97;8.10;;;;;;;16.39;64.42;98755.66;6920988;28;20358;-78
2022/11/01 03:57:05;;;;;;;14.57;8.73;;;;;;;16.55;64.11;98775.81;6920646;28;20298;-78
2022/11/01 04:00:30;;;;;;;16.27;8.23;;;;;;;16.32;64.99;98782.16;6920031;28;20299;-78
2022/11/01 04:03:51;;;;;;;12.83;8.20;;;;;;;16.56;63.91;98791.06;6920284;28;20734;-78
2022/11/01 04:07:13;;;;;;;11.67;8.47;;;;;;;16.14;65.22;98792.38;6920219;28;20235;-78
2022/11/01 04:10:34;;;;;;;13.33;7.73;;;;;;;16.02;66.28;98783.44;6920096;28;20216;-78
2022/11/01 04:20:31;;;;;;;16.27;8.00;;;;;;;16.64;63.93;98752.59;6920648;28;20634;-78
2022/11/01 04:21:32;;;;;;;13.00;6.30;;;;;;;17.55;61.94;98800.22;6862297;28;20230;-78
2022/11/01 04:24:53;;;;;;;11.70;6.97;;;;;;;17.40;61.30;98804.59;6870815;28;20262;-78
2022/11/01 04:28:15;;;;;;;9.03;6.73;;;;;;;17.59;61.85;98798.63;6919203;28;20264;-77
2022/11/01 04:31:36;;;;;;;13.63;7.13;;;;;;;17.63;61.33;98804.41;6920126;28;20631;-78
2022/11/01 04:34:59;;;;;;;12.40;6.87;;;;;;;17.61;61.28;98817.44;6920663;28;20354;-78
2022/11/01 04:38:21;;;;;;;9.80;6.53;;;;;;;17.15;62.59;98804.97;6918507;28;20349;-78
2022/11/01 04:41:42;;;;;;;10.03;6.33;;;;;;;16.81;63.46;98808.72;6919095;28;20312;-78
2022/11/01 04:45:05;;;;;;;9.30;6.33;;;;;;;17.80;60.19;98797.84;6918294;28;20296;-78
2022/11/01 04:48:27;;;;;;;11.57;6.10;;;;;;;18.22;59.16;98834.44;6917224;28;20311;-78
2022/11/01 04:51:50;;;;;;;12.10;6.73;;;;;;;18.57;58.47;98831.38;6918611;28;20234;-78
2022/11/01 04:55:11;;;;;;;9.47;4.80;;;;;;;18.93;57.13;98842.41;6917617;28;20294;-78
2022/11/01 04:58:35;;;;;;;8.10;4.40;;;;;;;18.98;56.36;98853.41;6917577;28;20234;-78
2022/11/01 05:01:56;;;;;;;7.87;3.87;;;;;;;19.08;56.00;98856.25;6917234;28;20235;-78
2022/11/01 05:05:18;;;;;;;8.33;4.20;;;;;;;19.10;55.20;98861.47;6891117;28;20292;-78
2022/11/01 05:08:41;;;;;;;5.97;3.63;;;;;;;19.41;54.52;98857.94;6890282;28;20366;-79
2022/11/01 05:12:03;;;;;;;6.03;3.17;;;;;;;19.53;53.64;98851.22;6890704;28;20367;-78
2022/11/01 05:15:24;;;;;;;6.10;3.43;;;;;;;19.64;53.21;98852.13;6891286;28;20311;-78
2022/11/01 05:18:46;;;;;;;7.47;3.83;;;;;;;19.46;53.84;98867.00;6890809;28;20246;-78
2022/11/01 05:22:07;;;;;;;7.27;4.00;;;;;;;19.43;54.01;98873.00;6890800;28;20251;-78
2022/11/01 05:25:30;;;;;;;7.53;3.53;;;;;;;19.66;53.23;98874.56;6891604;28;20302;-78
2022/11/01 05:28:52;;;;;;;8.70;3.90;;;;;;;19.71;53.58;98886.38;6890320;28;20320;-79
2022/11/01 05:32:13;;;;;;;8.53;3.90;;;;;;;19.78;53.24;98895.19;6891330;28;20653;-79
2022/11/01 05:35:35;;;;;;;6.97;3.50;;;;;;;20.02;52.75;98893.72;6891242;28;20275;-78
2022/11/01 05:38:57;;;;;;;7.80;3.40;;;;;;;19.99;52.42;98864.13;6888984;28;20262;-78
2022/11/01 05:42:20;;;;;;;8.67;3.53;;;;;;;20.04;52.53;98875.13;6890618;28;20312;-79
2022/11/01 05:45:42;;;;;;;5.00;3.60;;;;;;;19.91;52.92;98892.00;6890668;28;20291;-79
2022/11/01 05:49:04;;;;;;;7.70;3.60;;;;;;;19.37;54.08;98879.53;6889996;28;20731;-78
2022/11/01 05:52:25;;;;;;;5.40;3.40;;;;;;;19.82;53.32;98868.13;6890191;28;20637;-78
2022/11/01 05:55:47;;;;;;;6.80;4.67;;;;;;;20.11;51.90;98856.56;6890776;28;20669;-78
2022/11/01 05:59:10;;;;;;;4.47;3.40;;;;;;;19.90;52.74;98853.94;6890409;28;20303;-78
2022/11/01 06:02:31;;;;;;;4.23;3.40;;;;;;;20.04;52.33;98866.09;6890067;28;20388;-78
2022/11/01 06:05:53;;;;;;;5.77;3.47;;;;;;;19.90;53.02;98878.56;6892479;28;20215;-78
2022/11/01 06:09:15;;;;;;;5.30;3.90;;;;;;;19.88;53.39;98873.34;6891217;28;20319;-78
2022/11/01 06:12:36;;;;;;;3.60;2.93;;;;;;;19.89;54.07;98864.09;6934237;28;20230;-78
2022/11/01 06:16:00;;;;;;;6.40;3.30;;;;;;;20.12;53.35;98871.09;6952181;28;20207;-78
2022/11/01 06:19:21;;;;;;;4.97;3.50;;;;;;;20.05;53.26;98876.75;6952320;28;20234;-78
2022/11/01 06:22:43;;;;;;;4.40;3.23;;;;;;;19.96;53.21;98907.63;6956206;28;21030;-78
2022/11/01 06:26:05;;;;;;;4.87;3.10;;;;;;;20.26;52.74;98891.44;6953688;28;20242;-78
2022/11/01 06:29:27;;;;;;;6.13;3.00;;;;;;;20.42;52.33;98891.28;6951507;28;20570;-79
2022/11/01 06:32:50;;;;;;;5.27;3.00;;;;;;;20.33;52.82;98884.63;6951762;28;20262;-79
2022/11/01 06:36:11;;;;;;;5.77;3.50;;;;;;;20.32;52.53;98888.47;6951218;28;20324;-78
2022/11/01 06:39:33;;;;;;;5.37;3.77;;;;;;;20.32;52.75;98893.94;6949894;28;20806;-78
2022/11/01 06:42:59;;;;;;;5.63;3.47;;;;;;;19.89;54.51;98902.41;6950998;28;20716;-78
2022/11/01 06:46:20;;;;;;;4.53;2.97;;;;;;;19.79;55.00;98920.63;6941912;28;20291;-78
2022/11/01 06:49:43;;;;;;;4.30;2.90;;;;;;;20.17;53.60;98923.97;6923910;28;20277;-78
2022/11/01 06:53:05;;;;;;;8.20;4.00;;;;;;;20.33;53.45;98961.31;6901589;28;20598;-79
2022/11/01 06:56:26;;;;;;;3.70;2.90;;;;;;;19.94;55.51;98964.56;6897456;28;20248;-78
2022/11/01 06:59:48;;;;;;;4.83;2.90;;;;;;;19.87;55.54;98964.75;6923718;28;20238;-78
2022/11/01 07:03:11;;;;;;;3.63;2.40;;;;;;;19.25;58.15;98963.59;6923060;28;20231;-78
2022/11/01 07:06:34;;;;;;;2.80;2.47;;;;;;;19.73;57.06;98976.38;6923918;28;20239;-78
2022/11/01 07:09:56;;;;;;;4.93;3.50;;;;;;;20.30;55.35;98956.38;6922801;28;20315;-78
2022/11/01 07:13:17;;;;;;;4.63;3.70;;;;;;;20.25;55.77;98977.41;6923279;28;20670;-78
2022/11/01 07:16:39;;;;;;;2.80;2.40;;;;;;;18.79;59.60;98966.00;6923950;28;20346;-77
2022/11/01 07:20:00;;;;;;;5.60;3.23;;;;;;;19.49;59.21;98981.38;6922378;28;20275;-78
2022/11/01 07:23:23;;;;;;;4.97;3.60;;;;;;;19.91;58.18;98979.56;6922491;28;20310;-77
2022/11/01 07:26:45;;;;;;;2.83;2.50;;;;;;;19.22;60.28;98988.72;6922688;28;20261;-78
2022/11/01 07:30:08;;;;;;;4.57;3.20;;;;;;;20.05;57.34;98975.31;6921524;28;20320;-78
2022/11/01 07:33:30;;;;;;;2.87;2.60;;;;;;;19.19;59.68;98982.91;6917981;28;20240;-77
2022/11/01 07:36:52;;;;;;;3.40;2.70;;;;;;;19.82;59.01;98966.63;6895648;28;20695;-78
2022/11/01 07:40:15;;;;;;;3.20;3.00;;;;;;;19.63;60.49;98976.31;6893882;28;20299;-78
2022/11/01 07:43:37;;;;;;;5.00;3.00;;;;;;;20.10;58.48;98988.25;6895185;28;20236;-78
2022/11/01 07:46:58;;;;;;;3.60;3.13;;;;;;;20.10;58.39;98974.56;6910938;28;20214;-78
2022/11/01 07:50:20;;;;;;;4.37;3.20;;;;;;;19.99;58.76;99001.00;6928805;28;20317;-78
2022/11/01 07:53:41;;;;;;;4.87;3.30;;;;;;;19.92;58.99;99008.59;6918502;28;20708;-78
2022/11/01 07:57:04;;;;;;;5.77;3.50;;;;;;;19.96;59.05;99007.00;6911040;28;20339;-78
2022/11/01 08:00:26;;;;;;;5.90;3.70;;;;;;;20.15;58.66;99024.72;6896170;28;20343;-78
2022/11/01 08:03:48;;;;;;;3.30;3.00;;;;;;;20.15;58.25;98999.22;6894264;28;20208;-78
2022/11/01 08:07:10;;;;;;;4.33;2.87;;;;;;;20.21;58.11;99003.66;6901453;28;20672;-79
2022/11/01 08:10:31;;;;;;;4.10;2.73;;;;;;;20.19;57.96;99008.59;6920281;28;20342;-79
2022/11/01 08:13:54;;;;;;;4.83;2.37;;;;;;;20.48;57.18;99031.81;6916913;28;20208;-77
2022/11/01 08:17:16;;;;;;;2.87;2.40;;;;;;;20.59;56.78;99034.38;6918608;28;20294;-78
2022/11/01 08:20:37;;;;;;;5.50;4.47;;;;;;;20.68;56.74;99038.25;6921307;28;20338;-78
2022/11/01 08:23:59;;;;;;;3.30;2.83;;;;;;;20.95;56.20;99035.44;6921371;28;20208;-78
2022/11/01 08:27:20;;;;;;;2.20;2.00;;;;;;;20.83;54.20;99012.84;6920715;28;20208;-78
2022/11/01 08:30:45;;;;;;;5.27;2.93;;;;;;;21.21;54.22;99024.31;6907624;28;20798;-78
2022/11/01 08:34:07;;;;;;;3.03;2.03;;;;;;;21.53;53.63;99044.22;6893755;28;20275;-79
2022/11/01 08:37:28;;;;;;;2.10;1.90;;;;;;;21.67;53.04;99034.38;6910953;28;20216;-78
2022/11/01 08:40:51;;;;;;;4.23;2.67;;;;;;;21.88;52.33;99044.31;6919703;28;20349;-79
2022/11/01 08:44:12;;;;;;;3.43;2.43;;;;;;;21.62;52.60;99043.41;6921346;28;20710;-79
2022/11/01 08:47:35;;;;;;;2.60;2.40;;;;;;;21.74;53.18;99063.25;6920954;28;20633;-79
2022/11/01 08:50:57;;;;;;;5.67;2.73;;;;;;;21.68;53.99;99063.47;6921337;28;20785;-79
2022/11/01 08:54:18;;;;;;;4.90;2.63;;;;;;;21.91;54.11;99047.34;6921120;28;20327;-79
2022/11/01 08:57:40;;;;;;;2.40;2.20;;;;;;;22.04;52.48;99055.06;6920140;28;20257;-79
2022/11/01 09:01:01;;;;;;;2.53;2.23;;;;;;;22.11;52.06;99052.88;6920211;28;20231;-78
2022/11/01 09:04:24;;;;;;;3.33;2.27;;;;;;;22.04;51.92;99043.25;6895058;28;20685;-79
2022/11/01 09:07:46;;;;;;;2.40;2.20;;;;;;;21.90;52.41;99040.19;6892879;28;20304;-79
2022/11/01 09:11:07;;;;;;;2.17;1.97;;;;;;;22.07;52.95;99057.25;6893431;28;20329;-80
2022/11/01 09:14:29;;;;;;;4.47;2.50;;;;;;;22.20;52.67;99053.16;6900878;28;20216;-79
2022/11/01 09:17:51;;;;;;;2.23;2.03;;;;;;;22.22;53.03;99061.94;6920587;28;20297;-79
2022/11/01 09:21:15;;;;;;;2.40;2.20;;;;;;;21.96;52.71;99074.78;6919063;28;20228;-79
2022/11/01 09:24:37;;;;;;;2.30;2.10;;;;;;;22.05;52.94;99078.66;6921145;28;20649;-79
2022/11/01 09:27:58;;;;;;;3.17;2.00;;;;;;;22.14;52.32;99070.72;6920188;28;20208;-79
2022/11/01 09:31:20;;;;;;;3.13;2.20;;;;;;;22.07;52.21;99049.00;6921253;28;20314;-79
2022/11/01 09:34:41;;;;;;;2.17;1.90;;;;;;;22.24;51.93;99071.53;6919146;28;20290;-79
2022/11/01 09:38:04;;;;;;;2.23;1.73;;;;;;;22.25;52.98;99077.88;6901741;28;20918;-79
2022/11/01 09:41:32;;;;;;;3.60;2.30;;;;;;;22.40;52.30;99070.47;6892864;28;20778;-79
2022/11/01 09:44:55;;;;;;;1.80;1.70;;;;;;;22.16;52.91;99071.25;6893099;28;20203;-78
2022/11/01 09:48:17;;;;;;;3.87;1.97;;;;;;;22.15;53.00;99070.47;6921893;28;20290;-79
2022/11/01 09:51:38;;;;;;;1.67;1.57;;;;;;;22.13;51.90;99069.06;6926176;28;20254;-79
2022/11/01 09:55:01;;;;;;;2.03;1.70;;;;;;;22.31;52.59;99079.53;6920559;28;20283;-78
2022/11/01 09:58:32;;;;;;;2.17;1.63;;;;;;;22.17;52.61;99071.00;6914412;28;20241;-79
2022/11/01 10:02:02;;;;;;;2.53;1.87;;;;;;;22.28;52.00;99082.81;6927529;28;20235;-78
2022/11/01 10:05:47;;;;;;;2.77;1.80;;;;;;;23.18;50.84;99067.09;6937319;28;20211;-79
2022/11/01 10:09:13;;;;;;;1.70;1.60;;;;;;;23.81;49.05;99073.72;6925314;28;20278;-79
2022/11/01 10:12:47;;;;;;;1.73;1.63;;;;;;;23.88;48.92;99055.81;6925382;28;20327;-79
2022/11/01 10:16:12;;;;;;;1.60;1.50;;;;;;;24.51;47.00;99082.34;6917130;28;20207;-80
2022/11/01 10:19:35;;;;;;;1.70;1.60;;;;;;;24.17;46.92;99031.06;6920272;28;20282;-80
2022/11/01 10:22:57;;;;;;;1.97;1.40;;;;;;;24.59;47.33;99073.50;6920643;28;20440;-81
2022/11/01 10:26:21;;;;;;;1.77;1.63;;;;;;;24.43;45.81;99055.38;6919877;28;20238;-78
2022/11/01 10:29:47;;;;;;;1.13;1.03;;;;;;;24.15;44.99;99075.47;6924649;28;20249;-81
2022/11/01 10:33:25;;;;;;;1.20;1.10;;;;;;;23.60;46.09;99028.13;6926867;28;20291;-82
2022/11/01 10:36:47;;;;;;;1.93;1.30;;;;;;;23.60;47.19;99066.69;6925085;28;20293;-77
2022/11/01 10:40:12;;;;;;;1.83;1.30;;;;;;;23.38;47.49;99077.22;6925138;28;20266;-78
2022/11/01 10:43:37;;;;;;;4.70;2.00;;;;;;;23.60;47.01;99072.19;6925211;28;20230;-82
2022/11/01 10:47:05;;;;;;;6.10;3.40;;;;;;;23.87;46.76;99053.28;6928278;28;20253;-81
2022/11/01 10:50:28;;;;;;;4.80;2.60;;;;;;;23.99;46.84;99068.41;6925269;28;20212;-81
2022/11/01 10:53:54;;;;;;;4.07;2.10;;;;;;;23.74;46.19;99059.44;6923022;28;20222;-79
2022/11/01 10:57:23;;;;;;;1.83;1.60;;;;;;;23.71;46.23;99049.81;6936523;28;20207;-79
2022/11/01 11:00:46;;;;;;;7.90;6.13;;;;;;;24.33;45.58;99058.25;6950662;28;20636;-79
2022/11/01 11:04:13;;;;;;;9.47;7.53;;;;;;;24.03;46.17;99068.66;6943241;28;20296;-78
2022/11/01 11:07:34;;;;;;;13.73;9.80;;;;;;;24.30;45.26;99074.53;6905614;28;20206;-80
2022/11/01 11:10:58;;;;;;;1.27;1.20;;;;;;;23.56;46.84;99082.94;6911576;28;20369;-79
2022/11/01 11:14:20;;;;;;;12.60;11.33;;;;;;;23.59;46.79;99051.28;6900599;28;20683;-79
2022/11/01 11:17:43;;;;;;;3.03;2.50;;;;;;;24.13;45.86;99072.16;6908280;28;20205;-80
2022/11/01 11:21:08;;;;;;;1.67;1.57;;;;;;;24.22;45.82;99056.69;6911373;28;20707;-80
2022/11/01 11:24:32;;;;;;;1.40;1.30;;;;;;;24.53;44.24;99071.84;6909893;28;20247;-80
2022/11/01 11:27:55;;;;;;;3.07;2.10;;;;;;;24.26;44.74;99066.00;6918657;28;20307;-80
2022/11/01 11:31:21;;;;;;;1.40;1.30;;;;;;;23.63;45.86;99066.94;6918313;28;20220;-79
2022/11/01 11:34:43;;;;;;;1.67;1.57;;;;;;;23.13;45.05;99061.56;6908120;28;20284;-80
2022/11/01 11:38:06;;;;;;;1.43;1.20;;;;;;;23.56;43.20;99071.09;6914253;28;20288;-79
2022/11/01 11:41:30;;;;;;;1.57;1.23;;;;;;;23.32;43.50;99059.09;6909708;28;20236;-80
2022/11/01 11:44:54;;;;;;;3.73;3.43;;;;;;;23.67;44.21;99069.94;6908122;28;20199;-80
2022/11/01 11:48:22;;;;;;;5.53;4.50;;;;;;;23.51;44.11;99060.09;6907663;28;20204;-81
2022/11/01 11:51:46;;;;;;;1.90;1.73;;;;;;;23.31;44.23;99057.44;6911609;28;20653;-78
2022/11/01 11:55:26;;;;;;;2.20;1.63;;;;;;;23.52;43.88;99059.81;6902564;28;20234;-79
2022/11/01 11:58:50;;;;;;;1.50;1.40;;;;;;;23.88;42.39;99043.94;6899937;28;20284;-80
2022/11/01 12:02:18;;;;;;;3.70;1.90;;;;;;;23.45;43.15;99063.97;6910414;28;20323;-80
2022/11/01 12:05:51;;;;;;;2.20;1.70;;;;;;;23.23;44.17;99052.50;6905336;28;20207;-80
2022/11/01 12:09:38;;;;;;;1.97;1.67;;;;;;;23.74;43.11;99065.78;6922397;28;20305;-79
2022/11/01 12:13:02;;;;;;;2.33;1.40;;;;;;;24.27;42.03;99064.91;6911910;28;20225;-80
2022/11/01 12:16:24;;;;;;;2.23;1.53;;;;;;;24.32;41.68;99064.03;6911532;28;20209;-80
2022/11/01 12:20:00;;;;;;;1.83;1.30;;;;;;;23.55;43.81;99041.91;6912074;28;20233;-80
2022/11/01 12:23:27;;;;;;;2.90;1.53;;;;;;;24.01;43.14;99018.53;6818866;29;20272;-80
2022/11/01 12:26:50;;;;;;;2.27;1.97;;;;;;;24.27;42.24;99047.53;6827106;29;20262;-80
2022/11/01 12:30:19;;;;;;;5.03;1.90;;;;;;;23.44;44.38;99052.16;6829448;29;20237;-79
2022/11/01 12:33:44;;;;;;;3.90;2.00;;;;;;;23.97;43.55;99050.50;6829796;29;20299;-80
2022/11/01 12:37:11;;;;;;;4.43;2.27;;;;;;;24.12;43.33;99053.19;6837306;29;20211;-78
2022/11/01 12:40:36;;;;;;;2.83;1.83;;;;;;;23.12;44.72;99059.13;6824540;29;20205;-80
2022/11/01 12:44:12;;;;;;;4.67;2.07;;;;;;;22.59;46.66;99035.84;6834671;29;20280;-80
2022/11/01 12:47:39;;;;;;;3.87;2.03;;;;;;;22.58;47.81;99083.69;6834600;29;20340;-80
2022/11/01 12:51:04;;;;;;;4.83;2.37;;;;;;;22.24;48.01;99087.22;6837318;29;20558;-79
2022/11/01 12:54:29;;;;;;;4.97;2.20;;;;;;;21.86;48.28;99084.94;6814180;29;20239;-79
2022/11/01 12:57:50;;;;;;;3.83;2.50;;;;;;;21.99;48.57;99066.03;6820210;29;20228;-79
2022/11/01 13:01:23;;;;;;;3.97;2.30;;;;;;;22.36;48.16;99096.81;6891898;28;20256;-80
2022/11/01 13:04:56;;;;;;;4.20;2.37;;;;;;;21.70;49.24;99089.56;6905182;28;20203;-80
2022/11/01 13:08:24;;;;;;;16.07;7.17;;;;;;;21.56;49.90;99104.03;6905835;28;20669;-80
2022/11/01 13:11:51;;;;;;;5.70;2.83;;;;;;;22.29;48.43;99088.03;6907545;28;20269;-79
2022/11/01 13:15:17;;;;;;;5.63;2.70;;;;;;;22.09;48.08;99076.19;6900670;28;20193;-80
2022/11/01 13:18:44;;;;;;;4.07;2.37;;;;;;;21.28;49.51;99087.97;6911569;28;20204;-80
2022/11/01 13:22:13;;;;;;;3.47;2.20;;;;;;;21.44;48.91;99059.53;6917491;28;20232;-80
2022/11/01 13:25:39;;;;;;;7.00;2.50;;;;;;;22.01;48.28;99063.81;6905728;28;20650;-80
2022/11/01 13:29:07;;;;;;;5.73;2.80;;;;;;;22.18;47.50;99091.88;6908310;28;20644;-80
2022/11/01 13:32:35;;;;;;;5.97;2.87;;;;;;;22.53;47.30;99094.66;6898835;28;20220;-80
2022/11/01 13:36:01;;;;;;;8.87;3.03;;;;;;;22.66;46.07;99057.56;6913774;28;20212;-80
2022/11/01 13:39:36;;;;;;;4.83;2.20;;;;;;;21.96;47.67;99094.03;6908338;28;20204;-79
2022/11/01 13:43:03;;;;;;;3.97;2.47;;;;;;;21.44;47.85;99065.00;6906784;28;20230;-80
2022/11/01 13:46:42;;;;;;;4.53;2.33;;;;;;;21.42;49.14;99084.47;6908928;28;20205;-78
2022/11/01 13:50:31;;;;;;;4.97;1.80;;;;;;;21.16;49.42;99050.91;6902573;28;20220;-79
2022/11/01 13:53:57;;;;;;;6.33;4.30;;;;;;;21.97;48.13;99081.97;6911416;28;20242;-78
2022/11/01 13:57:23;;;;;;;3.77;2.30;;;;;;;22.12;47.62;99087.47;6908619;28;20228;-78
2022/11/01 14:00:47;;;;;;;5.10;2.10;;;;;;;22.22;47.01;99095.72;6893841;28;20273;-78
2022/11/01 14:04:45;;;;;;;4.50;2.43;;;;;;;22.29;47.13;99098.19;6897553;28;20220;-78
2022/11/01 14:08:26;;;;;;;5.53;2.57;;;;;;;22.33;46.70;99080.06;6908074;28;20298;-78
2022/11/01 14:11:48;;;;;;;4.77;2.57;;;;;;;22.31;46.53;99098.75;6903531;28;20319;-78
2022/11/01 14:15:27;;;;;;;6.53;2.20;;;;;;;22.05;46.92;99086.06;6915583;28;20206;-79
2022/11/01 14:19:29;;;;;;;4.77;2.40;;;;;;;21.61;47.48;99082.09;6912306;28;20207;-79
2022/11/01 14:22:51;;;;;;;3.07;1.90;;;;;;;21.80;47.12;99102.50;6912579;28;20224;-78
2022/11/01 14:26:49;;;;;;;3.83;2.47;;;;;;;21.30;47.58;99103.09;6902316;28;20236;-78
2022/11/01 14:30:13;;;;;;;3.23;2.03;;;;;;;21.79;47.77;99100.84;6909793;28;20716;-78
2022/11/01 14:33:36;;;;;;;2.57;2.00;;;;;;;21.91;46.75;99104.19;6913942;28;20224;-78
2022/11/01 14:37:03;;;;;;;6.30;2.10;;;;;;;21.86;46.58;99094.00;6924975;28;20207;-79
2022/11/01 14:40:31;;;;;;;4.17;2.17;;;;;;;21.99;46.60;99084.41;6923435;28;20191;-78
2022/11/01 14:43:54;;;;;;;6.73;2.70;;;;;;;22.07;46.58;99089.41;6923967;28;20207;-78
2022/11/01 14:47:25;;;;;;;3.20;2.13;;;;;;;21.98;46.80;99094.59;6924229;28;20785;-78
2022/11/01 14:50:52;;;;;;;7.90;3.13;;;;;;;21.69;47.41;99098.91;6924179;28;20231;-78
2022/11/01 14:54:24;;;;;;;3.17;1.90;;;;;;;22.09;46.51;99104.50;6924515;28;20301;-78
2022/11/01 14:57:47;;;;;;;4.33;2.50;;;;;;;21.90;46.70;99089.59;6923929;28;20330;-78
2022/11/01 15:01:13;;;;;;;5.50;2.50;;;;;;;22.12;46.33;99111.38;6923957;28;20632;-78
2022/11/01 15:04:39;;;;;;;5.03;2.13;;;;;;;21.88;46.58;99077.25;6924328;28;20326;-78
2022/11/01 15:08:02;;;;;;;3.93;2.07;;;;;;;21.86;47.00;99126.13;6923453;28;20510;-78
2022/11/01 15:11:26;;;;;;;4.10;2.03;;;;;;;21.49;47.76;99126.22;6922024;28;20268;-78
2022/11/01 15:14:49;;;;;;;4.30;2.20;;;;;;;21.43;48.05;99135.50;6920142;28;20292;-78
2022/11/01 15:18:15;;;;;;;4.77;2.53;;;;;;;21.45;47.92;99124.28;6896342;28;20219;-78
2022/11/01 15:21:41;;;;;;;3.23;2.50;;;;;;;21.49;47.95;99145.41;6896190;28;20267;-78
2022/11/01 15:25:06;;;;;;;3.90;2.30;;;;;;;21.09;48.50;99127.91;6902462;28;20250;-78
2022/11/01 15:28:33;;;;;;;5.50;2.20;;;;;;;20.90;48.98;99115.72;6922890;28;20338;-80
2022/11/01 15:31:57;;;;;;;3.47;2.20;;;;;;;20.82;49.09;99118.91;6923857;28;20262;-79
2022/11/01 15:35:21;;;;;;;5.03;2.37;;;;;;;21.15;48.39;99124.13;6921768;28;20243;-77
2022/11/01 15:38:49;;;;;;;6.80;2.63;;;;;;;21.38;48.49;99135.50;6923132;28;20274;-78
2022/11/01 15:42:16;;;;;;;6.60;2.57;;;;;;;21.01;49.20;99133.06;6922584;28;20249;-77
2022/11/01 15:45:38;;;;;;;3.13;2.40;;;;;;;21.07;49.48;99132.84;6922481;28;20267;-78
2022/11/01 15:49:04;;;;;;;4.47;2.30;;;;;;;21.17;48.81;99124.66;6921656;28;20242;-78
2022/11/01 15:52:29;;;;;;;5.23;3.07;;;;;;;21.20;49.29;99141.41;6922848;28;20285;-78
2022/11/01 15:55:53;;;;;;;7.97;2.50;;;;;;;20.83;50.02;99109.63;6921206;28;20234;-77
2022/11/01 15:59:24;;;;;;;7.27;2.50;;;;;;;20.27;52.42;99148.59;6918721;28;20687;-78
2022/11/01 16:02:48;;;;;;;5.03;2.27;;;;;;;20.07;52.60;99144.81;6922053;28;20294;-77
2022/11/01 16:06:14;;;;;;;4.63;2.13;;;;;;;20.13;52.87;99149.25;6922074;28;20218;-77